Time;durP1;ratioP1;P1;durP2;ratioP2;P2;SDS_P1;SDS_P2;PMS_P1;PMS_P2;Temp;Humidity;BMP_temperature;BMP_pressure;BME280_temperature;BME280_humidity;BME280_pressure;Samples;Min_cycle;Max_cycle;Signal;HPM_P1;HPM_P2
2022/08/21 00:00:51;;;;;;;2.45;2.25;;;;;;;;;;4197896;28;20040;-64
2022/08/21 00:02:56;;;;;;;1.90;1.80;;;;;;;;;;4198068;28;20097;-63
2022/08/21 00:04:57;;;;;;;1.80;1.70;;;;;;;;;;4197960;28;20036;-63
2022/08/21 00:07:01;;;;;;;2.53;2.33;;;;;;;;;;4196967;28;20124;-64
2022/08/21 00:09:04;;;;;;;2.10;2.00;;;;;;;;;;4197815;28;20376;-62
2022/08/21 00:11:05;;;;;;;2.17;1.98;;;;;;;;;;4197817;28;20257;-63
2022/08/21 00:13:06;;;;;;;1.88;1.77;;;;;;;;;;4197924;28;20479;-63
2022/08/21 00:15:09;;;;;;;2.60;2.40;;;;;;;;;;4198255;28;20055;-63
2022/08/21 00:17:09;;;;;;;2.13;1.98;;;;;;;;;;4197894;28;20028;-63
2022/08/21 00:19:13;;;;;;;2.08;1.88;;;;;;;;;;4197960;28;20071;-63
2022/08/21 00:21:15;;;;;;;2.80;2.30;;;;;;;;;;4197853;28;20033;-64
2022/08/21 00:23:16;;;;;;;2.40;2.20;;;;;;;;;;4197701;28;20085;-64
2022/08/21 00:25:18;;;;;;;2.00;1.90;;;;;;;;;;4197766;28;20035;-65
2022/08/21 00:27:19;;;;;;;2.33;2.13;;;;;;;;;;4197498;28;20154;-63
2022/08/21 00:29:20;;;;;;;2.03;1.92;;;;;;;;;;4197540;28;20044;-65
2022/08/21 00:31:20;;;;;;;2.05;1.90;;;;;;;;;;4197340;28;20059;-63
2022/08/21 00:33:21;;;;;;;2.00;1.90;;;;;;;;;;4197064;28;20139;-65
2022/08/21 00:35:27;;;;;;;2.13;2.03;;;;;;;;;;4198294;28;20016;-62
2022/08/21 00:37:28;;;;;;;2.28;2.13;;;;;;;;;;4179838;28;20041;-63
2022/08/21 00:39:29;;;;;;;1.85;1.75;;;;;;;;;;4197609;28;20024;-64
2022/08/21 00:41:30;;;;;;;2.05;1.80;;;;;;;;;;4196953;28;20044;-63
2022/08/21 00:43:32;;;;;;;1.85;1.75;;;;;;;;;;4198197;28;20028;-63
2022/08/21 00:45:33;;;;;;;2.17;2.08;;;;;;;;;;4197547;28;20530;-63
2022/08/21 00:47:34;;;;;;;1.95;1.85;;;;;;;;;;4197224;28;20101;-63
2022/08/21 00:49:35;;;;;;;2.13;1.92;;;;;;;;;;4197120;28;20491;-63
2022/08/21 00:51:39;;;;;;;2.03;1.90;;;;;;;;;;4196784;28;20468;-63
2022/08/21 00:53:44;;;;;;;1.90;1.77;;;;;;;;;;4197278;28;20052;-63
2022/08/21 00:55:45;;;;;;;;;;;;;;;;;;4197454;28;20299;-63
2022/08/21 00:57:48;;;;;;;2.00;1.80;;;;;;;;;;4197775;28;19904;-64
2022/08/21 00:59:51;;;;;;;1.95;1.85;;;;;;;;;;4197825;28;20020;-63
2022/08/21 01:01:52;;;;;;;1.90;1.80;;;;;;;;;;4192324;28;20044;-63
2022/08/21 01:03:53;;;;;;;2.13;1.60;;;;;;;;;;4197336;28;20051;-63
2022/08/21 01:05:54;;;;;;;2.08;1.98;;;;;;;;;;4197244;28;20028;-63
2022/08/21 01:07:56;;;;;;;2.08;1.92;;;;;;;;;;4197270;28;20388;-63
2022/08/21 01:09:58;;;;;;;2.20;2.00;;;;;;;;;;4196643;28;20460;-64
2022/08/21 01:11:59;;;;;;;2.15;2.05;;;;;;;;;;4197206;28;20036;-63
2022/08/21 01:14:00;;;;;;;1.90;1.80;;;;;;;;;;4197232;28;20045;-63
2022/08/21 01:16:03;;;;;;;1.88;1.77;;;;;;;;;;4196956;28;20090;-62
2022/08/21 01:18:05;;;;;;;2.25;2.05;;;;;;;;;;4197693;28;20090;-63
2022/08/21 01:20:07;;;;;;;2.05;1.85;;;;;;;;;;4196488;28;20106;-63
2022/08/21 01:22:08;;;;;;;1.80;1.70;;;;;;;;;;4196692;28;20040;-63
2022/08/21 01:24:09;;;;;;;2.65;2.17;;;;;;;;;;4196678;28;20379;-63
2022/08/21 01:26:11;;;;;;;2.00;1.90;;;;;;;;;;4196957;28;20071;-64
2022/08/21 01:28:16;;;;;;;1.88;1.67;;;;;;;;;;4196933;28;20029;-63
2022/08/21 01:30:21;;;;;;;2.30;2.10;;;;;;;;;;4195709;28;20090;-63
2022/08/21 01:32:29;;;;;;;2.22;2.03;;;;;;;;;;4184813;28;20090;-63
2022/08/21 01:34:30;;;;;;;2.25;2.05;;;;;;;;;;4197542;28;20090;-63
2022/08/21 01:36:31;;;;;;;1.90;1.80;;;;;;;;;;4196924;28;20490;-63
2022/08/21 01:38:32;;;;;;;2.20;2.00;;;;;;;;;;4196687;28;20036;-63
2022/08/21 01:40:33;;;;;;;1.88;1.77;;;;;;;;;;4196572;28;20032;-63
2022/08/21 01:42:34;;;;;;;3.67;1.80;;;;;;;;;;4196842;28;20031;-63
2022/08/21 01:44:35;;;;;;;2.20;2.00;;;;;;;;;;4196815;28;20082;-63
2022/08/21 01:46:36;;;;;;;2.08;1.98;;;;;;;;;;4198794;28;20036;-64
2022/08/21 01:48:38;;;;;;;2.20;2.00;;;;;;;;;;4200237;28;20059;-64
2022/08/21 01:50:38;;;;;;;2.05;1.95;;;;;;;;;;4199904;28;20032;-64
2022/08/21 01:52:43;;;;;;;1.75;1.65;;;;;;;;;;4200154;28;20113;-64
2022/08/21 01:54:44;;;;;;;1.92;1.83;;;;;;;;;;4200083;28;20093;-64
2022/08/21 01:56:49;;;;;;;2.30;2.10;;;;;;;;;;4200848;28;20032;-64
2022/08/21 01:58:50;;;;;;;1.90;1.80;;;;;;;;;;4200162;28;20090;-64
2022/08/21 02:00:51;;;;;;;1.95;1.73;;;;;;;;;;4199240;28;20128;-64
2022/08/21 02:02:51;;;;;;;2.28;2.08;;;;;;;;;;4200228;28;20120;-64
2022/08/21 02:04:52;;;;;;;1.88;1.77;;;;;;;;;;4185850;28;20041;-65
2022/08/21 02:06:53;;;;;;;1.92;1.83;;;;;;;;;;4182200;28;20068;-64
2022/08/21 02:08:54;;;;;;;2.05;1.85;;;;;;;;;;4180570;28;20029;-65
2022/08/21 02:10:55;;;;;;;1.80;1.70;;;;;;;;;;4182944;28;20036;-64
2022/08/21 02:12:56;;;;;;;2.95;2.10;;;;;;;;;;4182805;28;20415;-64
2022/08/21 02:14:57;;;;;;;1.80;1.70;;;;;;;;;;4185489;28;20037;-65
2022/08/21 02:16:58;;;;;;;1.77;1.67;;;;;;;;;;4193946;28;20422;-64
2022/08/21 02:18:59;;;;;;;2.10;1.95;;;;;;;;;;4197687;28;20059;-65
2022/08/21 02:21:00;;;;;;;1.83;1.73;;;;;;;;;;4189127;28;20068;-65
2022/08/21 02:23:01;;;;;;;2.20;2.00;;;;;;;;;;4193621;28;20086;-65
2022/08/21 02:25:03;;;;;;;1.67;1.58;;;;;;;;;;4183287;28;20041;-64
2022/08/21 02:27:04;;;;;;;1.90;1.80;;;;;;;;;;4186011;28;20037;-64
2022/08/21 02:29:04;;;;;;;1.55;1.45;;;;;;;;;;4200297;28;20434;-64
2022/08/21 02:31:06;;;;;;;1.70;1.60;;;;;;;;;;4199387;28;20036;-65
2022/08/21 02:33:07;;;;;;;1.70;1.60;;;;;;;;;;4189757;28;20040;-65
2022/08/21 02:35:09;;;;;;;1.60;1.50;;;;;;;;;;4191888;28;20094;-63
2022/08/21 02:37:12;;;;;;;2.03;1.90;;;;;;;;;;4190750;28;20114;-63
2022/08/21 02:39:13;;;;;;;1.50;1.40;;;;;;;;;;4199179;28;20109;-62
2022/08/21 02:41:15;;;;;;;1.73;1.63;;;;;;;;;;4185198;28;20086;-62
2022/08/21 02:43:17;;;;;;;1.95;1.85;;;;;;;;;;4182508;28;20037;-63
2022/08/21 02:45:18;;;;;;;1.90;1.80;;;;;;;;;;4182643;28;20040;-63
2022/08/21 02:47:19;;;;;;;2.42;2.17;;;;;;;;;;4182437;28;20032;-62
2022/08/21 02:49:20;;;;;;;2.60;1.63;;;;;;;;;;4182877;28;20123;-63
2022/08/21 02:51:22;;;;;;;1.83;1.73;;;;;;;;;;4182403;28;20060;-62
2022/08/21 02:53:23;;;;;;;1.70;1.60;;;;;;;;;;4184329;28;20053;-62
2022/08/21 02:55:26;;;;;;;1.70;1.60;;;;;;;;;;4199044;28;20472;-62
2022/08/21 02:57:27;;;;;;;1.73;1.50;;;;;;;;;;4198500;28;20090;-62
2022/08/21 02:59:28;;;;;;;1.75;1.65;;;;;;;;;;4186994;28;20033;-61
2022/08/21 03:01:29;;;;;;;1.83;1.73;;;;;;;;;;4181963;28;20045;-62
2022/08/21 03:03:30;;;;;;;2.10;1.90;;;;;;;;;;4182406;28;20036;-62
2022/08/21 03:05:31;;;;;;;2.38;2.15;;;;;;;;;;4189542;28;20020;-62
2022/08/21 03:07:33;;;;;;;2.30;2.10;;;;;;;;;;4185923;28;20095;-62
2022/08/21 03:09:34;;;;;;;2.50;2.28;;;;;;;;;;4194005;28;20029;-62
2022/08/21 03:11:35;;;;;;;1.85;1.70;;;;;;;;;;4193532;28;20055;-62
2022/08/21 03:13:36;;;;;;;1.90;1.80;;;;;;;;;;4182253;28;20071;-62
2022/08/21 03:15:38;;;;;;;1.98;1.70;;;;;;;;;;4183170;28;20063;-62
2022/08/21 03:17:39;;;;;;;1.65;1.55;;;;;;;;;;4182255;28;20431;-62
2022/08/21 03:19:40;;;;;;;2.00;1.90;;;;;;;;;;4182424;28;20053;-62
2022/08/21 03:21:41;;;;;;;2.00;1.80;;;;;;;;;;4186573;28;20024;-61
2022/08/21 03:23:41;;;;;;;1.55;1.35;;;;;;;;;;4183872;28;20047;-61
2022/08/21 03:25:42;;;;;;;2.03;1.80;;;;;;;;;;4197855;28;20077;-62
2022/08/21 03:27:43;;;;;;;1.77;1.67;;;;;;;;;;4184255;28;20039;-63
2022/08/21 03:29:44;;;;;;;1.52;1.42;;;;;;;;;;4182060;28;20029;-63
2022/08/21 03:31:45;;;;;;;2.00;1.80;;;;;;;;;;4181676;28;20079;-63
2022/08/21 03:33:50;;;;;;;1.73;1.63;;;;;;;;;;4182135;28;20087;-63
2022/08/21 03:35:55;;;;;;;1.75;1.65;;;;;;;;;;4182172;28;20037;-63
2022/08/21 03:37:56;;;;;;;1.83;1.63;;;;;;;;;;4180395;28;20036;-62
2022/08/21 03:39:57;;;;;;;1.50;1.40;;;;;;;;;;4163331;28;20022;-63
2022/08/21 03:41:59;;;;;;;1.70;1.60;;;;;;;;;;4198222;28;20357;-63
2022/08/21 03:44:00;;;;;;;1.92;1.83;;;;;;;;;;4196876;28;20090;-63
2022/08/21 03:46:01;;;;;;;1.80;1.70;;;;;;;;;;4198067;28;20490;-62
2022/08/21 03:48:03;;;;;;;1.65;1.45;;;;;;;;;;4198508;28;20028;-63
2022/08/21 03:50:05;;;;;;;2.35;1.45;;;;;;;;;;4197829;28;20446;-62
2022/08/21 03:52:06;;;;;;;1.55;1.45;;;;;;;;;;4198586;28;20036;-63
2022/08/21 03:54:06;;;;;;;1.58;1.48;;;;;;;;;;4198382;28;20097;-63
2022/08/21 03:56:07;;;;;;;2.65;1.58;;;;;;;;;;4191565;28;20039;-63
2022/08/21 03:58:08;;;;;;;1.70;1.50;;;;;;;;;;4163573;28;20033;-63
2022/08/21 04:00:11;;;;;;;3.35;1.55;;;;;;;;;;4182533;28;20029;-63
2022/08/21 04:02:15;;;;;;;2.75;1.30;;;;;;;;;;4197613;28;20102;-63
2022/08/21 04:04:16;;;;;;;1.42;1.33;;;;;;;;;;4198920;28;20042;-63
2022/08/21 04:06:17;;;;;;;1.73;1.63;;;;;;;;;;4198028;28;20464;-63
2022/08/21 04:08:18;;;;;;;1.80;1.60;;;;;;;;;;4196988;28;20106;-63
2022/08/21 04:10:19;;;;;;;2.55;1.50;;;;;;;;;;4197553;28;20032;-63
2022/08/21 04:12:20;;;;;;;1.83;1.20;;;;;;;;;;4195665;28;20036;-63
2022/08/21 04:14:24;;;;;;;3.38;1.80;;;;;;;;;;4197632;28;20075;-62
2022/08/21 04:16:25;;;;;;;1.70;1.48;;;;;;;;;;4197826;28;20086;-62
2022/08/21 04:18:26;;;;;;;1.60;1.50;;;;;;;;;;4185884;28;20041;-63
2022/08/21 04:20:27;;;;;;;1.73;1.63;;;;;;;;;;4181212;28;20438;-62
2022/08/21 04:22:28;;;;;;;1.42;1.33;;;;;;;;;;4181368;28;20040;-63
2022/08/21 04:24:28;;;;;;;5.25;2.30;;;;;;;;;;4180411;28;20090;-63
2022/08/21 04:26:30;;;;;;;1.50;1.40;;;;;;;;;;4181418;28;20044;-63
2022/08/21 04:28:31;;;;;;;1.50;1.40;;;;;;;;;;4180996;28;20079;-62
2022/08/21 04:30:32;;;;;;;1.50;1.40;;;;;;;;;;4180961;28;20114;-63
2022/08/21 04:32:33;;;;;;;2.28;1.60;;;;;;;;;;4173983;28;20481;-63
2022/08/21 04:34:34;;;;;;;2.65;1.85;;;;;;;;;;4188287;28;20037;-62
2022/08/21 04:36:35;;;;;;;5.40;1.98;;;;;;;;;;4163560;28;20040;-62
2022/08/21 04:38:36;;;;;;;1.98;1.73;;;;;;;;;;4193346;28;20357;-62
2022/08/21 04:40:37;;;;;;;3.88;1.67;;;;;;;;;;4193028;28;20086;-62
2022/08/21 04:42:43;;;;;;;2.45;1.65;;;;;;;;;;4185818;28;20047;-62
2022/08/21 04:44:44;;;;;;;8.88;1.80;;;;;;;;;;4197275;28;20041;-62
2022/08/21 04:46:45;;;;;;;3.10;1.75;;;;;;;;;;4195315;28;20111;-63
2022/08/21 04:48:46;;;;;;;3.85;1.40;;;;;;;;;;4181193;28;20064;-62
2022/08/21 04:50:51;;;;;;;2.10;1.42;;;;;;;;;;4181329;28;20021;-62
2022/08/21 04:52:52;;;;;;;1.60;1.50;;;;;;;;;;4195978;28;20037;-62
2022/08/21 04:54:55;;;;;;;5.65;1.65;;;;;;;;;;4197756;28;20488;-62
2022/08/21 04:56:59;;;;;;;3.33;1.83;;;;;;;;;;4197300;28;20028;-63
2022/08/21 04:59:03;;;;;;;3.25;1.52;;;;;;;;;;4188323;28;20456;-63
2022/08/21 05:01:06;;;;;;;2.97;1.60;;;;;;;;;;4191549;28;20048;-63
2022/08/21 05:03:08;;;;;;;2.97;1.15;;;;;;;;;;4197859;28;20070;-63
2022/08/21 05:05:10;;;;;;;3.00;1.88;;;;;;;;;;4195022;28;20155;-63
2022/08/21 05:07:16;;;;;;;1.75;1.65;;;;;;;;;;4196901;28;20357;-63
2022/08/21 05:09:18;;;;;;;3.05;1.45;;;;;;;;;;4197149;28;20074;-63
2022/08/21 05:11:19;;;;;;;3.58;1.75;;;;;;;;;;4196765;28;20033;-63
2022/08/21 05:13:20;;;;;;;3.50;1.50;;;;;;;;;;4197294;28;20153;-61
2022/08/21 05:15:21;;;;;;;2.85;1.52;;;;;;;;;;4196520;28;20475;-63
2022/08/21 05:17:23;;;;;;;2.53;1.40;;;;;;;;;;4197029;28;20037;-62
2022/08/21 05:19:24;;;;;;;1.98;1.40;;;;;;;;;;4196818;28;20036;-62
2022/08/21 05:21:25;;;;;;;2.10;1.58;;;;;;;;;;4196715;28;20533;-63
2022/08/21 05:23:28;;;;;;;2.17;1.55;;;;;;;;;;4197203;28;20056;-63
2022/08/21 05:25:29;;;;;;;3.35;1.70;;;;;;;;;;4197379;28;20090;-63
2022/08/21 05:27:30;;;;;;;1.60;1.50;;;;;;;;;;4191392;28;20064;-63
2022/08/21 05:29:31;;;;;;;4.32;1.40;;;;;;;;;;4197123;28;20114;-63
2022/08/21 05:31:32;;;;;;;1.70;1.52;;;;;;;;;;4196781;28;20060;-62
2022/08/21 05:33:33;;;;;;;3.97;1.52;;;;;;;;;;4196626;28;20101;-63
2022/08/21 05:35:34;;;;;;;2.53;1.45;;;;;;;;;;4196697;28;20029;-63
2022/08/21 05:37:35;;;;;;;1.48;1.30;;;;;;;;;;4196291;28;20103;-63
2022/08/21 05:39:36;;;;;;;1.88;1.50;;;;;;;;;;4196841;28;20177;-63
2022/08/21 05:41:36;;;;;;;1.88;1.60;;;;;;;;;;4197269;28;20024;-63
2022/08/21 05:43:40;;;;;;;1.70;1.52;;;;;;;;;;4197076;28;20025;-63
2022/08/21 05:45:41;;;;;;;1.40;1.30;;;;;;;;;;4194999;28;20113;-60
2022/08/21 05:47:42;;;;;;;1.48;1.20;;;;;;;;;;4196821;28;20087;-61
2022/08/21 05:49:43;;;;;;;3.83;1.45;;;;;;;;;;4197008;28;20036;-63
2022/08/21 05:51:43;;;;;;;3.10;1.48;;;;;;;;;;4197148;28;20021;-62
2022/08/21 05:53:44;;;;;;;2.47;1.70;;;;;;;;;;4197552;28;20062;-62
2022/08/21 05:55:46;;;;;;;3.00;1.40;;;;;;;;;;4196824;28;20062;-62
2022/08/21 05:57:46;;;;;;;1.27;1.20;;;;;;;;;;4196693;28;20457;-62
2022/08/21 05:59:47;;;;;;;1.50;1.40;;;;;;;;;;4196919;28;20024;-62
2022/08/21 06:01:48;;;;;;;1.70;1.60;;;;;;;;;;4196173;28;20049;-63
2022/08/21 06:03:49;;;;;;;1.50;1.40;;;;;;;;;;4197036;28;20574;-62
2022/08/21 06:05:51;;;;;;;1.52;1.42;;;;;;;;;;4196813;28;20123;-62
2022/08/21 06:07:52;;;;;;;1.52;1.42;;;;;;;;;;4197613;28;20021;-65
2022/08/21 06:09:53;;;;;;;1.75;1.48;;;;;;;;;;4196752;28;20043;-64
2022/08/21 06:11:54;;;;;;;1.40;1.27;;;;;;;;;;4196622;28;20119;-64
2022/08/21 06:13:57;;;;;;;2.03;1.60;;;;;;;;;;4196862;28;20047;-62
2022/08/21 06:16:07;;;;;;;3.95;1.50;;;;;;;;;;4196817;28;20036;-62
2022/08/21 06:18:11;;;;;;;1.45;1.35;;;;;;;;;;4197006;28;20086;-64
2022/08/21 06:20:12;;;;;;;2.22;1.52;;;;;;;;;;4196819;28;20036;-64
2022/08/21 06:22:13;;;;;;;2.88;1.50;;;;;;;;;;4196881;28;20119;-64
2022/08/21 06:24:14;;;;;;;1.85;1.30;;;;;;;;;;4196775;28;20094;-64
2022/08/21 06:26:17;;;;;;;1.90;1.42;;;;;;;;;;4196695;28;20082;-64
2022/08/21 06:28:19;;;;;;;2.85;1.60;;;;;;;;;;4179252;28;20033;-62
2022/08/21 06:30:19;;;;;;;5.10;1.40;;;;;;;;;;4196449;28;20048;-63
2022/08/21 06:32:20;;;;;;;1.55;1.20;;;;;;;;;;4198060;28;20033;-62
2022/08/21 06:34:24;;;;;;;1.83;1.70;;;;;;;;;;4200238;28;20071;-63
2022/08/21 06:36:25;;;;;;;1.70;1.30;;;;;;;;;;4200268;28;20074;-65
2022/08/21 06:38:26;;;;;;;1.85;1.42;;;;;;;;;;4199549;28;20098;-64
2022/08/21 06:40:28;;;;;;;1.88;1.67;;;;;;;;;;4199340;28;20411;-64
2022/08/21 06:42:28;;;;;;;3.15;1.40;;;;;;;;;;4199349;28;20082;-64
2022/08/21 06:44:30;;;;;;;1.42;1.33;;;;;;;;;;4199622;28;20028;-64
2022/08/21 06:46:31;;;;;;;2.13;1.80;;;;;;;;;;4200114;28;20028;-65
2022/08/21 06:48:33;;;;;;;1.73;1.55;;;;;;;;;;4199285;28;20028;-64
2022/08/21 06:50:37;;;;;;;1.73;1.25;;;;;;;;;;4196810;28;20113;-64
2022/08/21 06:52:38;;;;;;;1.58;1.48;;;;;;;;;;4199525;28;20094;-64
2022/08/21 06:54:39;;;;;;;1.23;1.13;;;;;;;;;;4199163;28;20040;-62
2022/08/21 06:56:42;;;;;;;2.10;1.40;;;;;;;;;;4199105;28;20082;-64
2022/08/21 06:58:43;;;;;;;1.60;1.50;;;;;;;;;;4199256;28;20461;-64
2022/08/21 07:00:46;;;;;;;1.33;1.23;;;;;;;;;;4199086;28;20029;-64
2022/08/21 07:02:47;;;;;;;1.42;1.33;;;;;;;;;;4198532;28;20545;-64
2022/08/21 07:04:48;;;;;;;2.58;1.20;;;;;;;;;;4199381;28;20127;-64
2022/08/21 07:06:49;;;;;;;1.40;1.23;;;;;;;;;;4198973;28;20048;-64
2022/08/21 07:08:50;;;;;;;1.33;1.23;;;;;;;;;;4198503;28;20059;-64
2022/08/21 07:10:51;;;;;;;1.65;1.30;;;;;;;;;;4199337;28;20028;-65
2022/08/21 07:12:54;;;;;;;1.95;1.40;;;;;;;;;;4198822;28;20094;-64
2022/08/21 07:14:55;;;;;;;1.42;1.23;;;;;;;;;;4198455;28;20548;-64
2022/08/21 07:16:58;;;;;;;1.85;1.45;;;;;;;;;;4198724;28;20029;-64
2022/08/21 07:18:59;;;;;;;1.48;1.38;;;;;;;;;;4199053;28;20036;-65
2022/08/21 07:21:03;;;;;;;1.10;1.08;;;;;;;;;;4198318;28;20651;-65
2022/08/21 07:23:11;;;;;;;1.50;1.40;;;;;;;;;;4198924;28;20044;-64
2022/08/21 07:25:15;;;;;;;1.40;1.27;;;;;;;;;;4199616;28;20406;-64
2022/08/21 07:27:15;;;;;;;1.58;1.42;;;;;;;;;;4198703;28;20426;-65
2022/08/21 07:29:22;;;;;;;1.63;1.30;;;;;;;;;;4198928;28;20028;-65
2022/08/21 07:31:24;;;;;;;1.40;1.30;;;;;;;;;;4198256;28;20032;-64
2022/08/21 07:33:25;;;;;;;1.50;1.40;;;;;;;;;;4198418;28;20506;-63
2022/08/21 07:35:27;;;;;;;1.45;1.30;;;;;;;;;;4198460;28;20040;-63
2022/08/21 07:37:31;;;;;;;1.58;1.48;;;;;;;;;;4198477;28;20150;-63
2022/08/21 07:39:32;;;;;;;1.63;1.30;;;;;;;;;;4182173;28;20033;-64
2022/08/21 07:41:37;;;;;;;1.13;1.08;;;;;;;;;;4179697;28;20032;-64
2022/08/21 07:43:38;;;;;;;1.48;1.38;;;;;;;;;;4180630;28;20443;-64
2022/08/21 07:45:39;;;;;;;2.20;1.33;;;;;;;;;;4181724;28;20029;-64
2022/08/21 07:47:39;;;;;;;1.60;1.50;;;;;;;;;;4182650;28;20032;-64
2022/08/21 07:49:40;;;;;;;1.33;1.23;;;;;;;;;;4181702;28;20033;-64
2022/08/21 07:51:41;;;;;;;2.85;1.50;;;;;;;;;;4181363;28;20100;-63
2022/08/21 07:53:47;;;;;;;1.30;1.20;;;;;;;;;;4182463;28;20135;-63
2022/08/21 07:55:48;;;;;;;1.60;1.30;;;;;;;;;;4181845;28;20087;-62
2022/08/21 07:57:49;;;;;;;2.22;1.60;;;;;;;;;;4181595;28;20064;-64
2022/08/21 07:59:50;;;;;;;1.25;1.15;;;;;;;;;;4181651;28;20033;-65
2022/08/21 08:01:51;;;;;;;1.42;1.33;;;;;;;;;;4182105;28;20037;-64
2022/08/21 08:03:52;;;;;;;1.02;1.00;;;;;;;;;;4181395;28;20045;-63
2022/08/21 08:05:53;;;;;;;1.50;1.40;;;;;;;;;;4182429;28;20033;-63
2022/08/21 08:07:54;;;;;;;1.60;1.50;;;;;;;;;;4181675;28;20098;-65
2022/08/21 08:09:55;;;;;;;1.20;1.10;;;;;;;;;;4181322;28;20036;-64
2022/08/21 08:11:58;;;;;;;1.20;1.10;;;;;;;;;;4181465;28;20049;-64
2022/08/21 08:13:59;;;;;;;1.45;1.30;;;;;;;;;;4181446;28;20518;-63
2022/08/21 08:16:00;;;;;;;1.30;1.20;;;;;;;;;;4181639;28;20131;-63
2022/08/21 08:18:01;;;;;;;1.33;1.10;;;;;;;;;;4181303;28;20044;-62
2022/08/21 08:20:02;;;;;;;1.27;1.17;;;;;;;;;;4181815;28;20074;-62
2022/08/21 08:22:12;;;;;;;1.23;1.13;;;;;;;;;;4181220;28;20066;-65
2022/08/21 08:24:16;;;;;;;1.88;1.60;;;;;;;;;;4181347;28;20476;-63
2022/08/21 08:26:17;;;;;;;1.50;1.40;;;;;;;;;;4181310;28;20041;-63
2022/08/21 08:28:18;;;;;;;1.42;1.33;;;;;;;;;;4163031;28;20108;-63
2022/08/21 08:30:20;;;;;;;1.20;1.15;;;;;;;;;;4181071;28;20542;-64
2022/08/21 08:32:21;;;;;;;1.38;1.20;;;;;;;;;;4181140;28;20143;-62
2022/08/21 08:34:22;;;;;;;1.35;1.25;;;;;;;;;;4181243;28;20037;-63
2022/08/21 08:36:31;;;;;;;1.30;1.20;;;;;;;;;;4180967;28;20095;-63
2022/08/21 08:38:32;;;;;;;1.80;1.70;;;;;;;;;;4181108;28;20037;-65
2022/08/21 08:41:02;;;;;;;1.48;1.33;;;;;;;;;;4180508;28;20091;-62
2022/08/21 08:43:05;;;;;;;1.45;1.10;;;;;;;;;;4164180;28;20542;-62
2022/08/21 08:45:11;;;;;;;1.33;1.10;;;;;;;;;;4181019;28;20041;-64
2022/08/21 08:47:13;;;;;;;1.38;1.27;;;;;;;;;;4181120;28;20037;-64
2022/08/21 08:49:17;;;;;;;1.58;1.48;;;;;;;;;;4180730;28;20045;-64
2022/08/21 08:51:26;;;;;;;1.65;1.40;;;;;;;;;;4180671;28;20033;-65
2022/08/21 08:53:33;;;;;;;1.55;1.45;;;;;;;;;;4180960;28;20488;-63
2022/08/21 08:55:39;;;;;;;1.60;1.50;;;;;;;;;;4180167;28;20079;-63
2022/08/21 08:57:42;;;;;;;1.60;1.50;;;;;;;;;;4180630;28;20095;-63
2022/08/21 08:59:44;;;;;;;1.50;1.40;;;;;;;;;;4180904;28;20033;-63
2022/08/21 09:01:46;;;;;;;1.33;1.23;;;;;;;;;;4180428;28;20037;-63
2022/08/21 09:03:49;;;;;;;1.30;1.20;;;;;;;;;;4180282;28;20045;-65
2022/08/21 09:06:05;;;;;;;1.63;1.52;;;;;;;;;;4180467;28;20550;-63
2022/08/21 09:08:12;;;;;;;2.05;1.30;;;;;;;;;;4180709;28;20029;-63
2022/08/21 09:10:21;;;;;;;1.50;1.40;;;;;;;;;;4180716;28;20063;-63
2022/08/21 09:12:31;;;;;;;1.40;1.30;;;;;;;;;;4180547;28;20435;-62
2022/08/21 09:14:48;;;;;;;1.55;1.45;;;;;;;;;;4180415;28;20037;-63
2022/08/21 09:16:57;;;;;;;1.35;1.25;;;;;;;;;;4180656;28;20083;-63
2022/08/21 09:19:14;;;;;;;1.63;1.50;;;;;;;;;;4180861;28;20033;-63
2022/08/21 09:21:28;;;;;;;1.33;1.23;;;;;;;;;;4181053;28;20021;-63
2022/08/21 09:23:32;;;;;;;1.70;1.60;;;;;;;;;;4180319;28;20037;-63
2022/08/21 09:25:40;;;;;;;2.10;1.67;;;;;;;;;;4180775;28;20116;-63
2022/08/21 09:27:41;;;;;;;1.50;1.20;;;;;;;;;;4180548;28;20040;-63
2022/08/21 09:29:44;;;;;;;1.60;1.50;;;;;;;;;;4180265;28;20039;-63
2022/08/21 09:31:45;;;;;;;1.70;1.60;;;;;;;;;;4180106;28;20071;-64
2022/08/21 09:33:46;;;;;;;1.48;1.38;;;;;;;;;;4180188;28;20053;-63
2022/08/21 09:35:54;;;;;;;1.38;1.27;;;;;;;;;;4180107;28;19935;-64
2022/08/21 09:37:59;;;;;;;1.48;1.38;;;;;;;;;;4180799;28;20480;-63
2022/08/21 09:40:00;;;;;;;1.58;1.38;;;;;;;;;;4196507;28;20048;-63
2022/08/21 09:42:03;;;;;;;1.38;1.27;;;;;;;;;;4197680;28;20074;-64
2022/08/21 09:44:08;;;;;;;1.40;1.30;;;;;;;;;;4196887;28;20093;-63
2022/08/21 09:46:28;;;;;;;1.20;1.10;;;;;;;;;;4197817;28;20008;-64
2022/08/21 09:48:31;;;;;;;1.40;1.30;;;;;;;;;;4196553;28;20541;-63
2022/08/21 09:50:32;;;;;;;2.47;1.35;;;;;;;;;;4196731;28;20137;-63
2022/08/21 09:52:42;;;;;;;1.40;1.30;;;;;;;;;;4193085;28;20082;-64
2022/08/21 09:54:44;;;;;;;1.92;1.65;;;;;;;;;;4196552;28;20094;-63
2022/08/21 09:59:18;;;;;;;2.15;1.50;;;;;;;;;;4197700;28;20028;-64
2022/08/21 10:01:21;;;;;;;1.50;1.40;;;;;;;;;;4178214;28;20035;-63
2022/08/21 10:03:25;;;;;;;1.67;1.33;;;;;;;;;;4196365;28;20045;-62
2022/08/21 10:05:27;;;;;;;1.75;1.65;;;;;;;;;;4197480;28;20086;-63
2022/08/21 10:07:29;;;;;;;1.65;1.30;;;;;;;;;;4198423;28;20456;-62
2022/08/21 10:09:30;;;;;;;1.42;1.33;;;;;;;;;;4199703;28;20081;-64
2022/08/21 10:11:34;;;;;;;1.35;1.25;;;;;;;;;;4199862;28;20048;-63
2022/08/21 10:13:37;;;;;;;1.10;1.10;;;;;;;;;;4198346;28;20085;-63
2022/08/21 10:15:57;;;;;;;1.45;1.35;;;;;;;;;;4199834;28;20101;-64
2022/08/21 10:18:02;;;;;;;1.45;1.35;;;;;;;;;;4200087;28;20044;-64
2022/08/21 10:20:23;;;;;;;1.70;1.60;;;;;;;;;;4199337;28;20361;-63
2022/08/21 10:22:32;;;;;;;1.30;1.20;;;;;;;;;;4199440;28;20036;-63
2022/08/21 10:24:49;;;;;;;1.27;1.17;;;;;;;;;;4199603;28;20025;-64
2022/08/21 10:26:59;;;;;;;1.48;1.38;;;;;;;;;;4199627;28;20036;-64
2022/08/21 10:29:12;;;;;;;1.52;1.42;;;;;;;;;;4200154;28;20089;-63
2022/08/21 10:31:16;;;;;;;1.50;1.40;;;;;;;;;;4199039;28;20032;-63
2022/08/21 10:33:32;;;;;;;1.38;1.27;;;;;;;;;;4199996;28;20086;-64
2022/08/21 10:35:50;;;;;;;1.40;1.30;;;;;;;;;;4199903;28;20098;-63
2022/08/21 10:38:09;;;;;;;1.40;1.30;;;;;;;;;;4199355;28;20102;-63
2022/08/21 10:40:13;;;;;;;1.63;1.52;;;;;;;;;;4199488;28;20098;-63
2022/08/21 10:42:20;;;;;;;1.38;1.27;;;;;;;;;;4199483;28;20033;-64
2022/08/21 10:44:24;;;;;;;1.20;1.10;;;;;;;;;;4200193;28;20074;-62
2022/08/21 10:46:33;;;;;;;1.83;1.73;;;;;;;;;;4200174;28;20062;-63
2022/08/21 10:48:48;;;;;;;1.40;1.30;;;;;;;;;;4199669;28;20480;-63
2022/08/21 10:50:53;;;;;;;1.20;1.10;;;;;;;;;;4198702;28;20028;-63
2022/08/21 10:53:17;;;;;;;1.33;1.23;;;;;;;;;;4199252;28;20102;-64
2022/08/21 10:55:20;;;;;;;1.50;1.27;;;;;;;;;;4199377;28;20044;-63
2022/08/21 10:57:29;;;;;;;1.40;1.27;;;;;;;;;;4199216;28;20024;-63
2022/08/21 10:59:33;;;;;;;1.58;1.48;;;;;;;;;;4198791;28;20630;-63
2022/08/21 11:01:45;;;;;;;1.33;1.23;;;;;;;;;;4199165;28;20081;-63
2022/08/21 11:03:52;;;;;;;1.33;1.15;;;;;;;;;;4198842;28;20053;-64
2022/08/21 11:05:59;;;;;;;1.30;1.20;;;;;;;;;;4199169;28;20078;-64
2022/08/21 11:08:03;;;;;;;1.52;1.38;;;;;;;;;;4198890;28;20033;-63
2022/08/21 11:10:24;;;;;;;1.10;1.10;;;;;;;;;;4199011;28;20032;-64
2022/08/21 11:12:28;;;;;;;1.40;1.30;;;;;;;;;;4198676;28;20025;-63
2022/08/21 11:14:55;;;;;;;1.20;1.10;;;;;;;;;;4197373;28;20041;-63
2022/08/21 11:17:00;;;;;;;1.35;1.25;;;;;;;;;;4198913;28;20036;-63
2022/08/21 11:19:13;;;;;;;1.45;1.35;;;;;;;;;;4180827;28;20029;-62
2022/08/21 11:21:27;;;;;;;1.63;1.52;;;;;;;;;;4198972;28;20093;-64
2022/08/21 11:23:38;;;;;;;1.33;1.23;;;;;;;;;;4199181;28;20070;-64
2022/08/21 11:25:45;;;;;;;1.42;1.33;;;;;;;;;;4198778;28;20090;-64
2022/08/21 11:27:50;;;;;;;1.90;1.63;;;;;;;;;;4198759;28;20032;-64
2022/08/21 11:29:56;;;;;;;1.25;1.15;;;;;;;;;;4199452;28;20345;-64
2022/08/21 11:32:17;;;;;;;1.38;1.27;;;;;;;;;;4198916;28;20020;-64
2022/08/21 11:34:36;;;;;;;1.35;1.25;;;;;;;;;;4147978;28;20082;-64
2022/08/21 11:36:56;;;;;;;1.33;1.20;;;;;;;;;;4198984;28;20082;-64
2022/08/21 11:39:11;;;;;;;1.60;1.30;;;;;;;;;;4198875;28;20067;-64
2022/08/21 11:41:29;;;;;;;1.50;1.30;;;;;;;;;;4198364;28;20426;-64
2022/08/21 11:43:33;;;;;;;1.50;1.40;;;;;;;;;;4198453;28;20037;-64
2022/08/21 11:45:36;;;;;;;1.48;1.38;;;;;;;;;;4198908;28;20024;-64
2022/08/21 11:47:46;;;;;;;1.23;1.13;;;;;;;;;;4198803;28;20480;-64
2022/08/21 11:49:55;;;;;;;1.60;1.50;;;;;;;;;;4198745;28;20074;-65
2022/08/21 11:52:14;;;;;;;1.40;1.30;;;;;;;;;;4198471;28;20032;-64
2022/08/21 11:54:38;;;;;;;1.95;1.50;;;;;;;;;;4198470;28;20094;-64
2022/08/21 11:56:48;;;;;;;1.50;1.40;;;;;;;;;;4198617;28;20537;-64
2022/08/21 11:58:54;;;;;;;1.52;1.42;;;;;;;;;;4198175;28;20086;-64
2022/08/21 12:00:57;;;;;;;1.42;1.30;;;;;;;;;;4198190;28;20040;-64
2022/08/21 12:03:05;;;;;;;1.13;1.13;;;;;;;;;;4197931;28;20032;-64
2022/08/21 12:05:07;;;;;;;1.30;1.20;;;;;;;;;;4180517;28;20106;-64
2022/08/21 12:07:11;;;;;;;1.73;1.40;;;;;;;;;;4198131;28;20097;-64
2022/08/21 12:09:24;;;;;;;1.63;1.42;;;;;;;;;;4185895;28;20025;-64
2022/08/21 12:11:25;;;;;;;1.00;1.00;;;;;;;;;;4181153;28;20095;-64
2022/08/21 12:13:31;;;;;;;1.40;1.30;;;;;;;;;;4181777;28;20423;-64
2022/08/21 12:15:31;;;;;;;1.50;1.40;;;;;;;;;;4181311;28;20110;-63
2022/08/21 12:17:37;;;;;;;1.60;1.50;;;;;;;;;;4182333;28;20091;-64
2022/08/21 12:19:38;;;;;;;1.30;1.20;;;;;;;;;;4185233;28;20021;-64
2022/08/21 12:21:51;;;;;;;1.30;1.20;;;;;;;;;;4192908;28;20055;-64
2022/08/21 12:24:02;;;;;;;1.23;1.20;;;;;;;;;;4198239;28;20036;-64